createdAt,value
2023-04-26T00:02:27.529Z,97592.34
2023-04-26T00:04:58.924Z,97587.97
2023-04-26T00:07:28.786Z,97591.97
2023-04-26T00:09:56.918Z,97595.94
2023-04-26T00:12:25.206Z,97590.38
2023-04-26T00:14:53.294Z,97588.47
2023-04-26T00:17:21.376Z,97586.66
2023-04-26T00:19:49.401Z,97595.38
2023-04-26T00:22:18.845Z,97596.50
2023-04-26T00:24:47.005Z,97602.00
2023-04-26T00:27:15.136Z,97592.16
2023-04-26T00:29:43.210Z,97597.91
2023-04-26T00:32:11.293Z,97601.06
2023-04-26T00:34:39.740Z,97601.97
2023-04-26T00:37:08.093Z,97618.66
2023-04-26T00:39:37.651Z,97595.44
2023-04-26T00:42:05.893Z,97604.44
2023-04-26T00:44:33.967Z,97593.84
2023-04-26T00:47:02.747Z,97599.53
2023-04-26T00:49:31.189Z,97612.38
2023-04-26T00:51:59.918Z,97591.50
2023-04-26T00:54:28.077Z,97604.03
2023-04-26T00:56:57.688Z,97598.88
2023-04-26T00:59:26.344Z,97608.88
2023-04-26T01:01:54.659Z,97615.13
2023-04-26T01:04:26.434Z,97604.06
2023-04-26T01:06:55.354Z,97599.50
2023-04-26T01:09:23.906Z,97619.88
2023-04-26T01:11:53.855Z,97621.56
2023-04-26T01:14:23.853Z,97620.78
2023-04-26T01:16:52.516Z,97619.63
2023-04-26T01:19:21.610Z,97626.50
2023-04-26T01:21:49.624Z,97633.63
2023-04-26T01:24:19.056Z,97642.06
2023-04-26T01:26:47.124Z,97631.31
2023-04-26T01:29:16.805Z,97634.16
2023-04-26T01:31:45.559Z,97648.13
2023-04-26T01:34:14.181Z,97643.72
2023-04-26T01:36:42.624Z,97644.72
2023-04-26T01:39:11.734Z,97656.09
2023-04-26T01:41:41.246Z,97649.34
2023-04-26T01:44:09.422Z,97648.22
2023-04-26T01:46:37.699Z,97639.94
2023-04-26T01:49:06.101Z,97648.31
2023-04-26T01:51:34.404Z,97645.16
2023-04-26T01:54:02.721Z,97656.94
2023-04-26T01:56:30.845Z,97646.38
2023-04-26T01:59:00.289Z,97650.56
2023-04-26T02:01:28.636Z,97655.84
2023-04-26T02:03:56.695Z,97663.34
2023-04-26T02:06:24.685Z,97653.00
2023-04-26T02:08:54.335Z,97666.09
2023-04-26T02:11:23.203Z,97666.97
2023-04-26T02:13:52.965Z,97666.16
2023-04-26T02:16:23.967Z,97660.69
2023-04-26T02:18:53.674Z,97668.44
2023-04-26T02:21:22.789Z,97662.34
2023-04-26T02:23:50.824Z,97662.69
2023-04-26T02:26:18.932Z,97672.72
2023-04-26T02:28:46.950Z,97672.38
2023-04-26T02:31:15.233Z,97668.56
2023-04-26T02:33:44.674Z,97670.09
2023-04-26T02:36:13.739Z,97666.91
2023-04-26T02:38:41.786Z,97670.72
2023-04-26T02:41:10.310Z,97668.25
2023-04-26T02:43:38.471Z,97670.72
2023-04-26T02:46:08.644Z,97664.94
2023-04-26T02:48:36.906Z,97668.59
2023-04-26T02:51:07.147Z,97672.97
2023-04-26T02:53:35.181Z,97674.94
2023-04-26T02:56:03.984Z,97681.63
2023-04-26T02:58:31.970Z,97677.50
2023-04-26T03:01:01.684Z,97688.78
2023-04-26T03:03:31.090Z,97681.91
2023-04-26T03:05:59.717Z,97681.00
2023-04-26T03:08:29.078Z,97690.72
2023-04-26T03:10:57.227Z,97678.44
2023-04-26T03:13:25.435Z,97684.19
2023-04-26T03:15:55.988Z,97685.09
2023-04-26T03:18:24.136Z,97686.03
2023-04-26T03:20:54.132Z,97689.16
2023-04-26T03:23:24.464Z,97705.84
2023-04-26T03:25:54.958Z,97697.25
2023-04-26T03:28:24.050Z,97697.66
2023-04-26T03:30:52.124Z,97696.75
2023-04-26T03:33:21.260Z,97704.75
2023-04-26T03:35:49.478Z,97711.00
2023-04-26T03:38:17.500Z,97709.88
2023-04-26T03:40:46.304Z,97727.81
2023-04-26T03:43:15.657Z,97720.88
2023-04-26T03:45:43.693Z,97720.19
2023-04-26T03:48:11.820Z,97736.34
2023-04-26T03:50:40.423Z,97730.47
2023-04-26T03:53:08.581Z,97736.66
2023-04-26T03:55:37.904Z,97732.75
2023-04-26T03:58:08.283Z,97727.94
2023-04-26T04:00:38.610Z,97734.75
2023-04-26T04:03:07.549Z,97739.69
2023-04-26T04:05:36.457Z,97746.78
2023-04-26T04:08:05.336Z,97748.97
2023-04-26T04:10:33.431Z,97756.19
2023-04-26T04:13:01.560Z,97750.44
2023-04-26T04:15:29.769Z,97756.06
2023-04-26T04:17:59.209Z,97746.63
2023-04-26T04:20:27.371Z,97759.41
2023-04-26T04:22:57.850Z,97764.34
2023-04-26T04:25:27.124Z,97763.88
2023-04-26T04:27:58.370Z,97764.97
2023-04-26T04:30:26.949Z,97769.78
2023-04-26T04:32:55.476Z,97771.28
2023-04-26T04:35:28.747Z,97772.38
2023-04-26T04:37:57.876Z,97773.19
2023-04-26T04:40:27.178Z,97778.50
2023-04-26T04:42:56.162Z,97778.72
2023-04-26T04:45:27.139Z,97781.84
2023-04-26T04:47:56.780Z,97789.13
2023-04-26T04:50:26.322Z,97787.31
2023-04-26T04:53:48.351Z,97793.91
2023-04-26T04:56:18.563Z,97791.44
2023-04-26T04:58:47.829Z,97793.06
2023-04-26T05:01:17.013Z,97802.78
2023-04-26T05:03:52.168Z,97795.72
2023-04-26T05:06:21.548Z,97811.22
2023-04-26T05:08:51.231Z,97808.50
2023-04-26T05:11:19.723Z,97802.84
2023-04-26T05:13:48.921Z,97808.28
2023-04-26T05:16:18.111Z,97800.53
2023-04-26T05:18:46.542Z,97808.31
2023-04-26T05:21:14.915Z,97809.22
2023-04-26T05:23:43.117Z,97807.50
2023-04-26T05:26:15.309Z,97809.63
2023-04-26T05:29:01.925Z,97816.91
2023-04-26T05:31:42.686Z,97817.03
2023-04-26T05:34:29.280Z,97818.09
2023-04-26T05:36:59.216Z,97818.25
2023-04-26T05:39:27.855Z,97826.63
2023-04-26T05:41:57.416Z,97827.22
2023-04-26T05:44:26.069Z,97822.81
2023-04-26T05:46:54.179Z,97825.31
2023-04-26T05:49:22.220Z,97845.63
2023-04-26T05:51:50.244Z,97831.06
2023-04-26T05:54:18.283Z,97836.94
2023-04-26T05:56:46.388Z,97850.59
2023-04-26T05:59:15.968Z,97844.00
2023-04-26T06:01:44.940Z,97833.63
2023-04-26T06:04:13.155Z,97845.03
2023-04-26T06:06:50.455Z,97860.41
2023-04-26T06:09:20.142Z,97851.28
2023-04-26T06:11:48.851Z,97827.56
2023-04-26T06:14:29.349Z,97831.19
2023-04-26T06:17:00.783Z,97831.63
2023-04-26T06:19:30.247Z,97855.38
2023-04-26T06:21:58.356Z,97850.28
2023-04-26T06:24:26.736Z,97848.50
2023-04-26T06:26:54.896Z,97823.25
2023-04-26T06:29:24.341Z,97839.59
2023-04-26T06:31:52.436Z,97827.84
2023-04-26T06:34:25.558Z,97843.72
2023-04-26T06:36:54.653Z,97833.09
2023-04-26T06:39:25.448Z,97825.34
2023-04-26T06:41:53.789Z,97834.25
2023-04-26T06:44:40.035Z,97824.34
2023-04-26T06:47:09.577Z,97846.47
2023-04-26T06:49:37.634Z,97840.38
2023-04-26T06:52:08.630Z,97841.31
2023-04-26T06:54:46.055Z,97847.72
2023-04-26T06:57:22.078Z,97849.81
2023-04-26T06:59:51.516Z,97862.56
2023-04-26T07:02:19.802Z,97845.50
2023-04-26T07:04:48.090Z,97853.19
2023-04-26T07:07:17.167Z,97841.09
2023-04-26T07:09:45.417Z,97875.03
2023-04-26T07:12:13.710Z,97865.69
2023-04-26T07:14:43.499Z,97864.78
2023-04-26T07:17:13.014Z,97867.13
2023-04-26T07:19:41.085Z,97856.47
2023-04-26T07:22:09.132Z,97850.03
2023-04-26T07:24:37.081Z,97865.00
2023-04-26T07:27:05.367Z,97883.63
2023-04-26T07:29:33.398Z,97868.03
2023-04-26T07:32:01.487Z,97852.38
2023-04-26T07:34:30.964Z,97875.38
2023-04-26T07:36:59.001Z,97875.69
2023-04-26T07:39:27.043Z,97870.56
2023-04-26T07:41:55.182Z,97848.59
2023-04-26T07:44:23.274Z,97878.97
2023-04-26T07:46:51.731Z,97868.81
2023-04-26T07:49:19.790Z,97862.13
2023-04-26T07:51:51.410Z,97877.44
2023-04-26T07:54:19.445Z,97880.94
2023-04-26T07:56:47.417Z,97895.28
2023-04-26T07:59:15.463Z,97872.44
2023-04-26T08:01:43.520Z,97870.44
2023-04-26T08:04:12.004Z,97920.97
2023-04-26T08:06:44.999Z,97898.41
2023-04-26T08:09:14.649Z,97898.91
2023-04-26T08:11:42.649Z,97867.63
2023-04-26T08:14:11.807Z,97899.00
2023-04-26T08:16:39.881Z,97888.28
2023-04-26T08:19:07.952Z,97881.28
2023-04-26T08:21:35.957Z,97877.81
2023-04-26T08:24:04.092Z,97934.91
2023-04-26T08:26:33.508Z,97916.84
2023-04-26T08:29:01.633Z,97907.34
2023-04-26T08:31:29.734Z,97881.84
2023-04-26T08:33:57.746Z,97886.91
2023-04-26T08:36:26.228Z,97924.69
2023-04-26T08:38:54.780Z,97877.38
2023-04-26T08:41:25.132Z,97895.97
2023-04-26T08:43:58.292Z,97894.91
2023-04-26T08:46:28.262Z,97894.47
2023-04-26T08:49:06.664Z,97889.03
2023-04-26T08:51:37.465Z,97903.91
2023-04-26T08:54:06.456Z,97891.31
2023-04-26T08:56:35.968Z,97886.16
2023-04-26T08:59:05.436Z,97879.69
2023-04-26T09:01:35.097Z,97908.63
2023-04-26T09:04:03.637Z,97904.09
2023-04-26T09:06:32.120Z,97890.47
2023-04-26T09:09:00.709Z,97912.13
2023-04-26T09:11:28.736Z,97908.25
2023-04-26T09:13:56.812Z,97889.00
2023-04-26T09:16:37.589Z,97891.31
2023-04-26T09:19:06.115Z,97894.13
2023-04-26T09:21:34.138Z,97896.38
2023-04-26T09:24:04.768Z,97944.78
2023-04-26T09:26:32.849Z,97944.88
2023-04-26T09:29:13.830Z,97944.31
2023-04-26T09:31:47.756Z,97905.06
2023-04-26T09:34:17.513Z,97909.19
2023-04-26T09:36:49.989Z,97897.38
2023-04-26T09:39:32.697Z,97885.28
2023-04-26T09:42:00.799Z,97933.31
2023-04-26T09:44:31.135Z,97940.00
2023-04-26T09:47:03.192Z,97926.19
2023-04-26T09:49:34.084Z,97929.44
2023-04-26T09:52:03.507Z,97939.16
2023-04-26T09:54:46.186Z,97911.44
2023-04-26T09:57:15.528Z,97906.56
2023-04-26T09:59:45.417Z,97912.16
2023-04-26T10:02:23.193Z,97917.09
2023-04-26T10:04:53.653Z,97926.56
2023-04-26T10:07:23.364Z,97911.50
2023-04-26T10:09:51.994Z,97903.44
2023-04-26T10:12:21.325Z,97900.22
2023-04-26T10:14:49.961Z,97917.66
2023-04-26T10:17:21.827Z,97898.31
2023-04-26T10:19:54.584Z,97912.88
2023-04-26T10:22:25.437Z,97899.63
2023-04-26T10:24:55.901Z,97887.41
2023-04-26T10:27:50.130Z,97897.38
2023-04-26T10:30:19.297Z,97909.66
2023-04-26T10:33:19.315Z,97896.94
2023-04-26T10:36:09.983Z,97907.50
2023-04-26T10:38:39.965Z,97900.09
2023-04-26T10:41:36.147Z,97910.47
2023-04-26T10:44:36.608Z,97893.47
2023-04-26T10:47:07.106Z,97926.25
2023-04-26T10:49:48.472Z,97906.09
2023-04-26T10:52:19.832Z,97979.28
2023-04-26T10:54:52.450Z,97938.75
2023-04-26T10:57:21.690Z,97936.06
2023-04-26T11:00:22.109Z,97919.88
2023-04-26T11:03:03.737Z,97943.72
2023-04-26T11:05:38.553Z,97920.94
2023-04-26T11:08:08.812Z,97924.84
2023-04-26T11:10:39.505Z,97924.00
2023-04-26T11:13:07.988Z,97924.13
2023-04-26T11:15:36.766Z,97895.16
2023-04-26T11:18:06.008Z,97932.88
2023-04-26T11:20:34.943Z,97909.66
2023-04-26T11:23:04.635Z,97940.88
2023-04-26T11:25:32.921Z,97941.09
2023-04-26T11:28:02.362Z,97911.16
2023-04-26T11:30:31.775Z,97916.56
2023-04-26T11:33:00.542Z,97943.16
2023-04-26T11:35:30.036Z,97979.72
2023-04-26T11:38:00.874Z,97951.38
2023-04-26T11:40:32.023Z,97956.44
2023-04-26T11:43:03.752Z,97944.88
2023-04-26T11:45:33.660Z,97941.16
2023-04-26T11:48:03.094Z,97941.28
2023-04-26T11:50:33.234Z,97899.91
2023-04-26T11:53:03.529Z,97935.91
2023-04-26T11:55:34.213Z,97973.31
2023-04-26T11:58:03.787Z,97962.28
2023-04-26T12:00:31.812Z,97957.16
2023-04-26T12:03:07.352Z,97975.94
2023-04-26T12:05:35.835Z,97968.03
2023-04-26T12:08:04.784Z,97976.97
2023-04-26T12:10:37.162Z,97967.72
2023-04-26T12:13:05.455Z,97927.28
2023-04-26T12:15:34.980Z,97937.19
2023-04-26T12:18:10.322Z,97988.78
2023-04-26T12:20:40.515Z,97955.19
2023-04-26T12:23:10.487Z,97968.56
2023-04-26T12:25:41.018Z,97958.50
2023-04-26T12:28:12.706Z,97945.22
2023-04-26T12:30:41.699Z,97929.66
2023-04-26T12:33:17.299Z,97922.56
2023-04-26T12:35:46.023Z,97979.13
2023-04-26T12:38:14.630Z,97975.63
2023-04-26T12:40:47.231Z,97986.84
2023-04-26T12:43:15.997Z,97961.81
2023-04-26T12:45:44.117Z,97963.75
2023-04-26T12:48:12.593Z,97960.19
2023-04-26T12:50:40.963Z,97961.75
2023-04-26T12:53:11.033Z,97953.13
2023-04-26T12:55:39.153Z,97945.72
2023-04-26T12:58:08.642Z,97969.63
2023-04-26T13:00:36.696Z,97946.56
2023-04-26T13:03:05.396Z,97968.63
2023-04-26T13:05:33.695Z,97971.16
2023-04-26T13:08:02.231Z,97975.50
2023-04-26T13:10:30.335Z,97981.34
2023-04-26T13:12:59.115Z,97980.50
2023-04-26T13:15:29.996Z,97993.53
2023-04-26T13:17:58.268Z,97963.72
2023-04-26T13:20:28.926Z,97966.75
2023-04-26T13:22:58.440Z,97963.19
2023-04-26T13:25:26.650Z,97983.81
2023-04-26T13:27:55.564Z,97984.69
2023-04-26T13:30:23.653Z,97954.63
2023-04-26T13:32:53.550Z,97975.97
2023-04-26T13:35:22.174Z,97970.63
2023-04-26T13:37:50.332Z,97969.78
2023-04-26T13:40:18.767Z,98015.84
2023-04-26T13:42:46.981Z,97992.09
2023-04-26T13:45:16.171Z,97980.19
2023-04-26T13:47:45.126Z,97979.75
2023-04-26T13:50:14.627Z,97981.06
2023-04-26T13:52:42.907Z,97969.28
2023-04-26T13:55:11.345Z,97965.88
2023-04-26T13:57:40.019Z,97972.06
2023-04-26T14:00:09.839Z,97968.59
2023-04-26T14:02:41.133Z,97924.38
2023-04-26T14:05:10.337Z,98039.91
2023-04-26T14:07:41.552Z,98004.44
2023-04-26T14:10:10.716Z,98013.38
2023-04-26T14:12:39.291Z,98008.09
2023-04-26T14:15:08.736Z,98004.53
2023-04-26T14:17:37.151Z,97997.59
2023-04-26T14:20:06.854Z,97985.44
2023-04-26T14:22:35.899Z,97995.47
2023-04-26T14:25:05.978Z,97984.38
2023-04-26T14:27:34.160Z,97993.56
2023-04-26T14:30:02.230Z,97997.13
2023-04-26T14:32:30.296Z,97999.53
2023-04-26T14:34:58.468Z,98017.63
2023-04-26T14:37:26.491Z,97985.97
2023-04-26T14:39:54.574Z,97985.13
2023-04-26T14:42:23.962Z,98009.44
2023-04-26T14:44:52.286Z,98012.81
2023-04-26T14:47:20.325Z,98018.56
2023-04-26T14:49:48.405Z,98000.09
2023-04-26T14:52:16.506Z,98024.72
2023-04-26T14:54:44.596Z,98056.16
2023-04-26T14:57:12.760Z,98011.25
2023-04-26T14:59:42.336Z,98021.00
2023-04-26T15:02:10.325Z,98001.16
2023-04-26T15:04:38.550Z,98022.41
2023-04-26T15:07:06.789Z,98024.47
2023-04-26T15:09:35.715Z,98016.84
2023-04-26T15:12:04.798Z,98050.66
2023-04-26T15:14:32.826Z,98059.56
2023-04-26T15:17:02.269Z,98040.78
2023-04-26T15:19:30.469Z,98051.03
2023-04-26T15:21:58.492Z,98045.59
2023-04-26T15:24:26.848Z,98036.81
2023-04-26T15:26:55.083Z,98041.50
2023-04-26T15:29:23.309Z,98028.50
2023-04-26T15:34:22.734Z,98057.56
2023-04-26T15:36:50.819Z,98062.19
2023-04-26T15:39:18.907Z,98064.66
2023-04-26T15:41:47.141Z,98076.81
2023-04-26T15:44:15.250Z,98084.47
2023-04-26T15:46:43.340Z,98060.88
2023-04-26T15:49:11.496Z,98075.84
2023-04-26T15:51:40.958Z,98063.59
2023-04-26T15:54:09.049Z,98061.06
2023-04-26T15:56:37.311Z,98062.44
2023-04-26T15:59:05.347Z,98060.16
2023-04-26T16:01:34.479Z,98067.75
2023-04-26T16:04:02.759Z,98062.72
2023-04-26T16:06:31.121Z,98050.59
2023-04-26T16:09:02.217Z,98068.28
2023-04-26T16:11:30.287Z,98056.63
2023-04-26T16:13:58.287Z,98060.41
2023-04-26T16:16:26.466Z,98059.66
2023-04-26T16:18:54.599Z,98059.81
2023-04-26T16:21:22.627Z,98059.47
2023-04-26T16:23:51.563Z,98057.88
2023-04-26T16:26:22.649Z,98059.50
2023-04-26T16:28:51.102Z,98056.44
2023-04-26T16:31:19.453Z,98064.78
2023-04-26T16:33:47.677Z,98055.97
2023-04-26T16:36:15.770Z,98067.53
2023-04-26T16:38:43.788Z,98068.69
2023-04-26T16:41:11.872Z,98077.47
2023-04-26T16:43:41.303Z,98074.75
2023-04-26T16:46:09.600Z,98102.16
2023-04-26T16:48:39.552Z,98095.47
2023-04-26T16:51:08.782Z,98099.88
2023-04-26T16:53:37.733Z,98115.47
2023-04-26T16:56:06.453Z,98113.50
2023-04-26T16:58:34.532Z,98108.34
2023-04-26T17:01:04.785Z,98100.09
2023-04-26T17:03:33.077Z,98118.53
2023-04-26T17:06:01.586Z,98143.69
2023-04-26T17:08:29.742Z,98116.72
2023-04-26T17:10:58.312Z,98123.84
2023-04-26T17:13:29.392Z,98110.91
2023-04-26T17:15:57.792Z,98113.66
2023-04-26T17:18:27.382Z,98116.09
2023-04-26T17:20:56.439Z,98132.72
2023-04-26T17:23:24.903Z,98122.97
2023-04-26T17:25:54.970Z,98131.47
2023-04-26T17:28:23.438Z,98126.28
2023-04-26T17:30:51.503Z,98136.69
2023-04-26T17:33:19.934Z,98127.97
2023-04-26T17:35:49.619Z,98130.72
2023-04-26T17:38:17.600Z,98129.81
2023-04-26T17:40:45.595Z,98130.56
2023-04-26T17:43:13.659Z,98135.28
2023-04-26T17:45:41.734Z,98139.88
2023-04-26T17:48:13.347Z,98144.91
2023-04-26T17:50:42.034Z,98144.75
2023-04-26T17:53:11.755Z,98149.47
2023-04-26T17:55:40.664Z,98156.47
2023-04-26T17:58:08.754Z,98159.53
2023-04-26T18:00:36.887Z,98155.25
2023-04-26T18:03:06.528Z,98161.06
2023-04-26T18:05:34.748Z,98154.19
2023-04-26T18:08:04.231Z,98163.59
2023-04-26T18:10:33.862Z,98168.78
2023-04-26T18:13:01.941Z,98170.44
2023-04-26T18:15:30.056Z,98173.81
2023-04-26T18:17:58.137Z,98174.91
2023-04-26T18:20:26.177Z,98187.66
2023-04-26T18:22:54.351Z,98182.38
2023-04-26T18:25:22.643Z,98179.16
2023-04-26T18:27:52.102Z,98186.50
2023-04-26T18:30:20.448Z,98178.38
2023-04-26T18:32:48.573Z,98182.38
2023-04-26T18:35:16.859Z,98192.59
2023-04-26T18:37:44.909Z,98196.56
2023-04-26T18:40:14.074Z,98193.63
2023-04-26T18:42:42.203Z,98192.91
2023-04-26T18:45:12.652Z,98199.22
2023-04-26T18:47:41.357Z,98203.16
2023-04-26T18:50:10.080Z,98203.13
2023-04-26T18:52:39.942Z,98211.88
2023-04-26T18:55:08.828Z,98216.38
2023-04-26T18:57:36.901Z,98217.72
2023-04-26T19:00:06.590Z,98213.72
2023-04-26T19:02:40.167Z,98220.34
2023-04-26T19:05:09.832Z,98224.19
2023-04-26T19:07:38.463Z,98220.75
2023-04-26T19:10:07.580Z,98228.44
2023-04-26T19:12:35.689Z,98220.75
2023-04-26T19:15:03.893Z,98221.22
2023-04-26T19:17:33.642Z,98227.53
2023-04-26T19:20:07.327Z,98219.84
2023-04-26T19:22:36.125Z,98225.13
2023-04-26T19:25:05.131Z,98223.84
2023-04-26T19:27:36.233Z,98232.66
2023-04-26T19:30:04.329Z,98232.63
2023-04-26T19:32:32.524Z,98230.03
2023-04-26T19:35:00.612Z,98232.69
2023-04-26T19:37:30.018Z,98236.44
2023-04-26T19:39:58.313Z,98231.84
2023-04-26T19:42:26.822Z,98225.06
2023-04-26T19:44:54.861Z,98226.56
2023-04-26T19:47:22.895Z,98226.28
2023-04-26T19:49:53.073Z,98218.03
2023-04-26T19:52:21.236Z,98230.31
2023-04-26T19:54:50.606Z,98231.13
2023-04-26T19:57:18.590Z,98237.03
2023-04-26T19:59:46.684Z,98230.03
2023-04-26T20:02:14.812Z,98234.22
2023-04-26T20:04:43.035Z,98235.88
2023-04-26T20:07:11.307Z,98237.31
2023-04-26T20:09:39.556Z,98240.97
2023-04-26T20:12:08.981Z,98242.44
2023-04-26T20:14:37.512Z,98243.25
2023-04-26T20:17:05.977Z,98238.13
2023-04-26T20:19:34.186Z,98242.16
2023-04-26T20:22:02.370Z,98244.41
2023-04-26T20:24:30.428Z,98240.44
2023-04-26T20:26:58.494Z,98244.03
2023-04-26T20:29:28.008Z,98245.47
2023-04-26T20:31:56.145Z,98248.50
2023-04-26T20:34:24.485Z,98238.94
2023-04-26T20:36:52.468Z,98243.75
2023-04-26T20:39:21.896Z,98246.56
2023-04-26T20:41:50.066Z,98240.34
2023-04-26T20:44:18.233Z,98252.38
2023-04-26T20:46:47.722Z,98254.56
2023-04-26T20:49:15.844Z,98249.00
2023-04-26T20:51:43.867Z,98250.84
2023-04-26T20:54:11.837Z,98257.63
2023-04-26T20:56:39.842Z,98259.56
2023-04-26T20:59:08.418Z,98256.97
2023-04-26T21:01:36.694Z,98264.59
2023-04-26T21:04:06.552Z,98259.13
2023-04-26T21:06:34.819Z,98252.38
2023-04-26T21:09:03.822Z,98264.63
2023-04-26T21:11:31.847Z,98272.72
2023-04-26T21:13:59.880Z,98262.75
2023-04-26T21:16:28.137Z,98267.50
2023-04-26T21:18:56.170Z,98270.22
2023-04-26T21:21:27.644Z,98264.88
2023-04-26T21:23:56.683Z,98271.19
2023-04-26T21:26:24.734Z,98275.47
2023-04-26T21:28:52.994Z,98267.63
2023-04-26T21:31:21.254Z,98274.63
2023-04-26T21:33:49.323Z,98277.78
2023-04-26T21:36:17.400Z,98283.50
2023-04-26T21:38:46.853Z,98285.03
2023-04-26T21:41:14.956Z,98279.97
2023-04-26T21:43:42.933Z,98290.03
2023-04-26T21:46:11.887Z,98288.06
2023-04-26T21:48:39.953Z,98290.34
2023-04-26T21:51:08.076Z,98287.84
2023-04-26T21:53:36.215Z,98283.78
2023-04-26T21:56:06.696Z,98300.63
2023-04-26T21:58:34.909Z,98303.03
2023-04-26T22:01:10.075Z,98309.16
2023-04-26T22:03:38.975Z,98310.47
2023-04-26T22:06:08.513Z,98312.00
2023-04-26T22:08:36.868Z,98310.59
2023-04-26T22:11:06.477Z,98303.38
2023-04-26T22:13:34.504Z,98313.44
2023-04-26T22:16:02.720Z,98302.47
2023-04-26T22:18:30.925Z,98306.22
2023-04-26T22:20:58.927Z,98313.44
2023-04-26T22:23:27.079Z,98312.09
2023-04-26T22:25:55.086Z,98316.38
2023-04-26T22:28:24.560Z,98327.69
2023-04-26T22:30:52.565Z,98323.47
2023-04-26T22:33:20.563Z,98323.94
2023-04-26T22:35:48.609Z,98318.41
2023-04-26T22:38:16.763Z,98324.69
2023-04-26T22:40:44.752Z,98328.97
2023-04-26T22:43:12.811Z,98322.84
2023-04-26T22:45:42.204Z,98322.03
2023-04-26T22:48:10.305Z,98330.88
2023-04-26T22:50:38.358Z,98330.34
2023-04-26T22:53:06.510Z,98327.81
2023-04-26T22:55:34.507Z,98331.31
2023-04-26T22:58:02.545Z,98337.06
2023-04-26T23:00:30.982Z,98336.59
2023-04-26T23:03:00.705Z,98337.28
2023-04-26T23:05:28.815Z,98335.41
2023-04-26T23:07:56.791Z,98339.03
2023-04-26T23:10:25.168Z,98346.84
2023-04-26T23:12:53.644Z,98344.06
2023-04-26T23:15:21.750Z,98343.72
2023-04-26T23:17:49.804Z,98349.53
2023-04-26T23:20:19.361Z,98346.34
2023-04-26T23:22:47.402Z,98352.13
2023-04-26T23:25:15.480Z,98340.56
2023-04-26T23:27:43.500Z,98339.84
2023-04-26T23:30:13.992Z,98341.84
2023-04-26T23:32:42.086Z,98342.59
2023-04-26T23:35:11.371Z,98341.63
2023-04-26T23:37:40.999Z,98340.66
2023-04-26T23:40:10.608Z,98344.28
2023-04-26T23:42:38.602Z,98341.28
2023-04-26T23:45:07.868Z,98344.09
2023-04-26T23:47:36.095Z,98345.94
2023-04-26T23:50:04.168Z,98355.41
2023-04-26T23:52:32.213Z,98343.50
2023-04-26T23:55:01.676Z,98345.69
2023-04-26T23:57:29.772Z,98345.47
2023-04-26T23:59:57.871Z,98342.31
